AirNav   Air Wisconsin Up To $57,000 Bonus
 
 1154 users online  

4IL9 Unzicker Airport
Benson, Illinois, USA

GOING TO BENSON?


FAA INFORMATION EFFECTIVE 01 DECEMBER 2022

Location

FAA Identifier: 4IL9
Lat/Long: 40-49-39.0000N 089-07-15.0000W
40-49.650000N 089-07.250000W
40.8275000,-89.1208333
(estimated)
Elevation: 745 ft. / 227 m
From city: 2 miles S of BENSON, IL
Time zone: UTC -6 (UTC -5 during Daylight Saving Time)
Zip code: 61516

Airport Operations

Airport use: Private use. Permission required prior to landing
Activation date: 09/2004
Control tower: no
ARTCC: CHICAGO CENTER
FSS: KANKAKEE FLIGHT SERVICE STATION
Attendance: IREG
Wind indicator: yes
Segmented circle: no

Airport Communications

WX AWOS-3 at C75 (17 nm NW): 119.425 (309-246-3089)

Nearby radio navigation aids

VOR radial/distance  VOR name  Freq  Var
PNTr268/17.6PONTIAC VOR/DME109.6003E
BMIr334/22.5BLOOMINGTON VOR/DME108.2003E
BDFr133/29.1BRADFORD VORTAC114.7000E
PIAr070/31.8PEORIA VORTAC115.2004E

Airport Services

Runway Information

Runway 18/36

Dimensions: 2280 x 140 ft. / 695 x 43 m
Surface: turf
RUNWAY 18  RUNWAY 36
Traffic pattern: leftleft
Displaced threshold: 140 ft.
DSPLCD THLDS RYS 18 & 36 ARE MARKED WITH TIRES PAINTED WHITE.
530 ft.
Obstructions: 7 ft. crops30 ft. bldg, 70 ft. from runway

Airport Ownership and Management from official FAA records

Ownership: Privately-owned
Owner: KEITH UNZICKER
2218 COUNTY RD 1600 N
BENSON, IL 61516
Phone (309) 369-5008
Manager: KEITH UNZICKER
2218 COUNTY RD 1600 N
BENSON, IL 61516
Phone (309) 369-5008

Airport Operational Statistics

Aircraft based on the field: 2
Single engine airplanes: 2
    

Additional Remarks

265 FT TWR 800 FT SSE OF ARPT AND 393 FT 1/2 NM SW OF ARPT.
FOR CD CTC CHICAGO ARTCC AT 630-906-8921.

Instrument Procedures

There are no published instrument procedures at 4IL9.

Some nearby airports with instrument procedures:

C75 - Marshall County Airport (17 nm NW)
3MY - Mount Hawley Auxiliary Airport (22 nm W)
KBMI - Central Illinois Regional Airport/Bloomington-Normal (23 nm SE)
KPNT - Pontiac Municipal Airport (23 nm E)
KPIA - General Downing - Peoria International Airport (28 nm W)
 
Loc | Ops | Rwys | IFR | FBO | Links
Com | Nav | Svcs | Stats | Notes
Area around 4IL9 (Unzicker Airport)
 
Road maps at: MapQuest Bing Google
 
Aerial photo
No photo
 
Sectional chart

 
Airport distance calculator
Flying to Unzicker Airport? Find the distance to fly.

From to 4IL9

Sunrise and sunset
Times for 04-Dec-2022
 Local
(UTC-6)
 Zulu
(UTC)
Morning civil twilight06:3512:35
Sunrise07:0613:06
Sunset16:2822:28
Evening civil twilight16:5922:59

Current date and time
Zulu (UTC)  05-Dec-2022 02:52:59
Local (UTC-6)  04-Dec-2022 20:52:59
 
METAR
KC75 
16nm NW 
050235Z AUTO 20004KT 10SM CLR 00/M06 A3004 RMK AO2 T10031057
KPNT 
23nm E 
050230Z AUTO 20012KT 10SM CLR 00/M04 A3006 RMK AO2 T00001044
KBMI 
24nm SE 
050156Z 19008KT 10SM CLR M03/M07 A3008 RMK AO2 SLP196 T10331067
KPIA 
27nm W 
050154Z 20012KT 10SM CLR 01/M07 A3006 RMK AO2 SLP187 T00111072
KVYS 
31nm N 
050235Z AUTO 19005KT 10SM CLR M02/M07 A3003 RMK AO2 T10251075
TAF
KBMI 
24nm SE 
042300Z 0423/0518 20008KT P6SM SCT250 FM050900 19008KT P6SM SCT150 BKN250 FM051500 19012KT P6SM BKN150
KPIA 
27nm W 
042302Z 0423/0518 19006KT P6SM SCT250 FM050900 18005KT P6SM SCT120 BKN250 FM051500 19008KT P6SM BKN150
NOTAMs
Click for the latest NOTAMs
NOTAMs are issued by the DoD/FAA and will open in a separate window not controlled by AirNav.

 

 
 

Would you like to see your business listed on this page?

 If your business provides an interesting product or service to pilots, flight crews, aircraft, or users of the Unzicker Airport, you should consider listing it here.  To start the listing process, click on the button below
 
Add a business
 

Other Pages about Unzicker Airport

Update a link
 
Copyright © AirNav, LLC. All rights reserved. Privacy Policy  Contact